sensor_id;sensor_type;location;lat;lon;timestamp;P1;durP1;ratioP1;P2;durP2;ratioP2
1877;SDS011;939;51.426;6.972;2023-05-10T04:04:23;9.67;;;6.13;;
1877;SDS011;939;51.426;6.972;2023-05-10T04:06:50;10.87;;;5.80;;
1877;SDS011;939;51.426;6.972;2023-05-10T04:09:20;13.93;;;7.07;;
1877;SDS011;939;51.426;6.972;2023-05-10T04:11:46;15.40;;;7.27;;
1877;SDS011;939;51.426;6.972;2023-05-10T04:14:13;16.07;;;9.70;;
1877;SDS011;939;51.426;6.972;2023-05-10T04:16:41;14.10;;;7.67;;
1877;SDS011;939;51.426;6.972;2023-05-10T04:19:08;14.80;;;9.67;;
1877;SDS011;939;51.426;6.972;2023-05-10T04:21:37;14.37;;;9.30;;
1877;SDS011;939;51.426;6.972;2023-05-10T04:24:04;12.00;;;8.13;;
1877;SDS011;939;51.426;6.972;2023-05-10T04:26:33;14.20;;;8.07;;
1877;SDS011;939;51.426;6.972;2023-05-10T04:29:06;11.10;;;6.20;;
1877;SDS011;939;51.426;6.972;2023-05-10T04:31:37;16.00;;;6.90;;
1877;SDS011;939;51.426;6.972;2023-05-10T04:34:04;15.03;;;9.00;;
1877;SDS011;939;51.426;6.972;2023-05-10T04:36:36;19.07;;;8.90;;
1877;SDS011;939;51.426;6.972;2023-05-10T04:39:07;12.10;;;7.20;;
1877;SDS011;939;51.426;6.972;2023-05-10T04:41:39;16.53;;;7.90;;
1877;SDS011;939;51.426;6.972;2023-05-10T04:44:06;17.07;;;9.07;;
1877;SDS011;939;51.426;6.972;2023-05-10T04:46:33;22.57;;;8.20;;
1877;SDS011;939;51.426;6.972;2023-05-10T04:49:00;22.20;;;8.90;;
1877;SDS011;939;51.426;6.972;2023-05-10T04:51:27;16.00;;;8.70;;
1877;SDS011;939;51.426;6.972;2023-05-10T04:53:58;15.70;;;7.07;;
1877;SDS011;939;51.426;6.972;2023-05-10T04:56:39;15.30;;;7.97;;
1877;SDS011;939;51.426;6.972;2023-05-10T04:59:06;18.53;;;7.07;;
1877;SDS011;939;51.426;6.972;2023-05-10T05:01:33;17.40;;;7.97;;
1877;SDS011;939;51.426;6.972;2023-05-10T05:04:01;15.47;;;8.43;;
1877;SDS011;939;51.426;6.972;2023-05-10T05:06:28;15.60;;;8.47;;
1877;SDS011;939;51.426;6.972;2023-05-10T05:09:00;23.17;;;9.30;;
1877;SDS011;939;51.426;6.972;2023-05-10T05:11:27;23.00;;;9.00;;
1877;SDS011;939;51.426;6.972;2023-05-10T05:13:54;14.27;;;9.47;;
1877;SDS011;939;51.426;6.972;2023-05-10T05:16:35;15.97;;;9.53;;
1877;SDS011;939;51.426;6.972;2023-05-10T05:19:08;19.37;;;12.00;;
1877;SDS011;939;51.426;6.972;2023-05-10T05:21:50;21.00;;;10.70;;
1877;SDS011;939;51.426;6.972;2023-05-10T05:27:30;15.80;;;9.30;;
1877;SDS011;939;51.426;6.972;2023-05-10T05:30:01;16.47;;;10.00;;
1877;SDS011;939;51.426;6.972;2023-05-10T05:35:59;23.20;;;10.07;;
1877;SDS011;939;51.426;6.972;2023-05-10T05:39:21;20.80;;;11.10;;
1877;SDS011;939;51.426;6.972;2023-05-10T06:02:37;22.73;;;10.10;;
1877;SDS011;939;51.426;6.972;2023-05-10T06:26:19;21.47;;;11.70;;
1877;SDS011;939;51.426;6.972;2023-05-10T06:28:50;27.20;;;10.73;;
1877;SDS011;939;51.426;6.972;2023-05-10T06:31:18;15.50;;;8.90;;
1877;SDS011;939;51.426;6.972;2023-05-10T06:34:04;16.23;;;9.63;;
1877;SDS011;939;51.426;6.972;2023-05-10T06:37:10;23.53;;;9.93;;
1877;SDS011;939;51.426;6.972;2023-05-10T06:43:19;22.50;;;11.10;;
1877;SDS011;939;51.426;6.972;2023-05-10T06:47:50;17.23;;;9.27;;
